sensor_id;sensor_type;location;lat;lon;timestamp;pressure;altitude;pressure_sealevel;temperature;humidity
31225;BME280;17847;31.524;74.366;2023-04-03T00:02:00;98154.66;;;18.13;86.79
31225;BME280;17847;31.524;74.366;2023-04-03T00:04:30;98154.38;;;18.10;86.73
31225;BME280;17847;31.524;74.366;2023-04-03T00:07:00;98143.94;;;18.13;87.05
31225;BME280;17847;31.524;74.366;2023-04-03T00:09:30;98137.41;;;18.31;86.16
31225;BME280;17847;31.524;74.366;2023-04-03T00:11:59;98135.78;;;18.30;85.48
31225;BME280;17847;31.524;74.366;2023-04-03T00:14:29;98143.72;;;18.20;85.99
31225;BME280;17847;31.524;74.366;2023-04-03T00:16:58;98153.31;;;18.74;87.46
31225;BME280;17847;31.524;74.366;2023-04-03T00:19:28;98176.66;;;18.47;84.65
31225;BME280;17847;31.524;74.366;2023-04-03T00:21:58;98190.78;;;18.37;86.35
31225;BME280;17847;31.524;74.366;2023-04-03T00:24:27;98194.56;;;18.36;85.31
31225;BME280;17847;31.524;74.366;2023-04-03T00:26:57;98206.34;;;18.35;86.48
31225;BME280;17847;31.524;74.366;2023-04-03T00:29:26;98222.78;;;18.44;86.76
31225;BME280;17847;31.524;74.366;2023-04-03T00:31:56;98242.66;;;18.48;85.43
31225;BME280;17847;31.524;74.366;2023-04-03T00:34:25;98251.50;;;19.07;84.70
31225;BME280;17847;31.524;74.366;2023-04-03T00:36:54;98290.47;;;18.83;84.30
31225;BME280;17847;31.524;74.366;2023-04-03T00:39:25;98357.84;;;18.60;85.36
31225;BME280;17847;31.524;74.366;2023-04-03T00:41:54;98403.25;;;18.45;86.00
31225;BME280;17847;31.524;74.366;2023-04-03T00:47:08;98413.25;;;18.32;86.70
31225;BME280;17847;31.524;74.366;2023-04-03T00:49:38;98393.88;;;18.25;86.76
31225;BME280;17847;31.524;74.366;2023-04-03T00:52:13;98407.28;;;18.25;87.24
31225;BME280;17847;31.524;74.366;2023-04-03T00:54:46;98435.41;;;18.23;87.60
31225;BME280;17847;31.524;74.366;2023-04-03T00:57:17;98442.25;;;18.14;88.37
31225;BME280;17847;31.524;74.366;2023-04-03T00:59:56;98444.13;;;18.13;88.44
31225;BME280;17847;31.524;74.366;2023-04-03T01:02:27;98442.66;;;18.06;88.34
31225;BME280;17847;31.524;74.366;2023-04-03T01:04:57;98443.16;;;18.03;88.74
31225;BME280;17847;31.524;74.366;2023-04-03T01:07:30;98458.19;;;18.04;89.01
31225;BME280;17847;31.524;74.366;2023-04-03T01:10:05;98448.13;;;17.94;88.42
31225;BME280;17847;31.524;74.366;2023-04-03T01:12:38;98454.22;;;17.89;88.70
31225;BME280;17847;31.524;74.366;2023-04-03T01:15:23;98433.28;;;17.86;88.53
31225;BME280;17847;31.524;74.366;2023-04-03T01:17:55;98434.66;;;17.89;88.42
31225;BME280;17847;31.524;74.366;2023-04-03T01:25:48;98435.13;;;18.03;88.17
31225;BME280;17847;31.524;74.366;2023-04-03T01:28:21;98433.25;;;18.03;87.94
31225;BME280;17847;31.524;74.366;2023-04-03T01:33:21;98427.16;;;18.08;87.66
31225;BME280;17847;31.524;74.366;2023-04-03T01:35:51;98425.28;;;18.08;87.45
31225;BME280;17847;31.524;74.366;2023-04-03T01:38:21;98417.50;;;18.07;87.28
31225;BME280;17847;31.524;74.366;2023-04-03T01:40:51;98426.50;;;18.17;87.48
31225;BME280;17847;31.524;74.366;2023-04-03T01:43:21;98433.34;;;18.30;87.56
31225;BME280;17847;31.524;74.366;2023-04-03T01:45:51;98424.19;;;18.26;86.66
31225;BME280;17847;31.524;74.366;2023-04-03T01:48:21;98422.78;;;18.40;86.75
31225;BME280;17847;31.524;74.366;2023-04-03T01:50:50;98425.16;;;18.58;86.26
31225;BME280;17847;31.524;74.366;2023-04-03T01:53:20;98427.78;;;18.53;85.70
31225;BME280;17847;31.524;74.366;2023-04-03T01:55:50;98429.56;;;18.48;84.68
31225;BME280;17847;31.524;74.366;2023-04-03T01:58:20;98436.94;;;18.57;85.27
31225;BME280;17847;31.524;74.366;2023-04-03T02:00:51;98427.03;;;18.58;84.29
31225;BME280;17847;31.524;74.366;2023-04-03T02:03:21;98432.09;;;18.54;84.56
31225;BME280;17847;31.524;74.366;2023-04-03T02:05:50;98431.72;;;18.51;84.79
31225;BME280;17847;31.524;74.366;2023-04-03T02:08:20;98437.59;;;18.48;84.74
31225;BME280;17847;31.524;74.366;2023-04-03T02:10:50;98436.84;;;18.52;85.04
31225;BME280;17847;31.524;74.366;2023-04-03T02:13:19;98433.75;;;18.60;85.80
31225;BME280;17847;31.524;74.366;2023-04-03T02:15:49;98444.69;;;18.54;85.11
31225;BME280;17847;31.524;74.366;2023-04-03T02:18:18;98445.25;;;18.56;84.87
31225;BME280;17847;31.524;74.366;2023-04-03T02:20:47;98447.59;;;18.52;84.89
31225;BME280;17847;31.524;74.366;2023-04-03T02:23:17;98450.06;;;18.54;84.67
31225;BME280;17847;31.524;74.366;2023-04-03T02:25:46;98443.66;;;18.60;84.72
31225;BME280;17847;31.524;74.366;2023-04-03T02:28:17;98443.50;;;18.66;85.06
31225;BME280;17847;31.524;74.366;2023-04-03T02:30:47;98438.19;;;18.71;85.06
31225;BME280;17847;31.524;74.366;2023-04-03T02:33:17;98443.97;;;18.63;84.17
31225;BME280;17847;31.524;74.366;2023-04-03T02:35:47;98428.81;;;18.74;85.36
31225;BME280;17847;31.524;74.366;2023-04-03T02:38:22;98430.28;;;18.87;85.29
31225;BME280;17847;31.524;74.366;2023-04-03T02:40:53;98437.94;;;18.73;84.10
31225;BME280;17847;31.524;74.366;2023-04-03T02:43:23;98436.25;;;18.67;84.27
31225;BME280;17847;31.524;74.366;2023-04-03T02:45:53;98424.28;;;18.74;84.32
31225;BME280;17847;31.524;74.366;2023-04-03T02:48:23;98428.53;;;18.70;84.06
31225;BME280;17847;31.524;74.366;2023-04-03T02:50:54;98428.00;;;18.73;84.42
31225;BME280;17847;31.524;74.366;2023-04-03T02:53:24;98421.28;;;18.71;84.26
31225;BME280;17847;31.524;74.366;2023-04-03T02:55:53;98405.13;;;18.66;83.36
31225;BME280;17847;31.524;74.366;2023-04-03T02:58:23;98394.34;;;18.61;83.52
31225;BME280;17847;31.524;74.366;2023-04-03T03:00:55;98389.16;;;18.76;84.38
31225;BME280;17847;31.524;74.366;2023-04-03T03:03:24;98390.81;;;18.82;83.62
31225;BME280;17847;31.524;74.366;2023-04-03T03:06:08;98385.28;;;18.67;82.98
31225;BME280;17847;31.524;74.366;2023-04-03T03:08:40;98385.59;;;18.70;83.64
31225;BME280;17847;31.524;74.366;2023-04-03T03:11:10;98378.91;;;18.73;83.35
31225;BME280;17847;31.524;74.366;2023-04-03T03:13:40;98381.34;;;18.74;84.14
31225;BME280;17847;31.524;74.366;2023-04-03T03:16:09;98377.25;;;18.94;84.04
31225;BME280;17847;31.524;74.366;2023-04-03T03:18:39;98369.16;;;18.89;84.13
31225;BME280;17847;31.524;74.366;2023-04-03T03:21:08;98370.44;;;18.86;84.60
31225;BME280;17847;31.524;74.366;2023-04-03T03:23:40;98384.69;;;18.87;85.06
31225;BME280;17847;31.524;74.366;2023-04-03T03:26:10;98395.56;;;19.02;84.15
31225;BME280;17847;31.524;74.366;2023-04-03T03:28:40;98410.09;;;19.06;84.38
31225;BME280;17847;31.524;74.366;2023-04-03T03:31:11;98409.28;;;19.05;84.98
31225;BME280;17847;31.524;74.366;2023-04-03T03:33:41;98402.41;;;19.14;84.17
31225;BME280;17847;31.524;74.366;2023-04-03T03:36:10;98394.34;;;19.14;85.43
31225;BME280;17847;31.524;74.366;2023-04-03T03:38:39;98385.66;;;19.02;85.36
31225;BME280;17847;31.524;74.366;2023-04-03T03:41:09;98390.66;;;19.20;85.50
31225;BME280;17847;31.524;74.366;2023-04-03T03:43:40;98390.53;;;19.74;83.81
31225;BME280;17847;31.524;74.366;2023-04-03T03:46:11;98392.38;;;19.68;82.59
31225;BME280;17847;31.524;74.366;2023-04-03T03:48:41;98395.53;;;20.02;82.33
31225;BME280;17847;31.524;74.366;2023-04-03T03:51:10;98405.41;;;19.92;82.41
31225;BME280;17847;31.524;74.366;2023-04-03T03:53:40;98398.66;;;19.84;83.31
31225;BME280;17847;31.524;74.366;2023-04-03T03:56:13;98401.63;;;20.30;81.24
31225;BME280;17847;31.524;74.366;2023-04-03T03:58:44;98400.16;;;20.12;80.81
31225;BME280;17847;31.524;74.366;2023-04-03T04:01:14;98402.94;;;19.80;82.05
31225;BME280;17847;31.524;74.366;2023-04-03T04:03:48;98401.38;;;19.89;81.48
31225;BME280;17847;31.524;74.366;2023-04-03T04:06:21;98405.59;;;19.75;82.93
31225;BME280;17847;31.524;74.366;2023-04-03T04:08:52;98409.16;;;19.86;83.79
31225;BME280;17847;31.524;74.366;2023-04-03T04:11:22;98415.47;;;19.64;84.04
31225;BME280;17847;31.524;74.366;2023-04-03T04:13:53;98408.75;;;19.67;84.24
31225;BME280;17847;31.524;74.366;2023-04-03T04:16:26;98413.47;;;19.87;82.43
31225;BME280;17847;31.524;74.366;2023-04-03T04:18:58;98411.91;;;19.96;83.60
31225;BME280;17847;31.524;74.366;2023-04-03T04:21:28;98422.19;;;20.04;83.01
31225;BME280;17847;31.524;74.366;2023-04-03T04:23:57;98415.91;;;20.40;81.39
31225;BME280;17847;31.524;74.366;2023-04-03T04:26:27;98427.34;;;20.15;82.53
31225;BME280;17847;31.524;74.366;2023-04-03T04:28:57;98427.09;;;20.17;83.14
31225;BME280;17847;31.524;74.366;2023-04-03T04:31:27;98435.97;;;20.23;82.63
31225;BME280;17847;31.524;74.366;2023-04-03T04:33:57;98441.47;;;20.38;83.02
31225;BME280;17847;31.524;74.366;2023-04-03T04:36:27;98450.84;;;20.30;81.82
31225;BME280;17847;31.524;74.366;2023-04-03T04:38:57;98455.53;;;20.55;82.10
31225;BME280;17847;31.524;74.366;2023-04-03T04:41:28;98462.22;;;20.47;81.57
31225;BME280;17847;31.524;74.366;2023-04-03T04:43:58;98463.34;;;20.56;80.78
31225;BME280;17847;31.524;74.366;2023-04-03T04:46:27;98461.69;;;20.45;80.10
31225;BME280;17847;31.524;74.366;2023-04-03T04:48:59;98446.19;;;20.73;79.93
31225;BME280;17847;31.524;74.366;2023-04-03T04:51:30;98460.66;;;20.56;78.14
31225;BME280;17847;31.524;74.366;2023-04-03T04:54:12;98496.91;;;21.06;78.65
31225;BME280;17847;31.524;74.366;2023-04-03T04:56:41;98522.88;;;21.32;78.08
31225;BME280;17847;31.524;74.366;2023-04-03T04:59:11;98529.84;;;21.18;77.39
31225;BME280;17847;31.524;74.366;2023-04-03T05:01:41;98534.69;;;21.26;78.57
31225;BME280;17847;31.524;74.366;2023-04-03T05:04:15;98537.94;;;21.28;78.63
31225;BME280;17847;31.524;74.366;2023-04-03T05:06:49;98548.22;;;21.41;78.17
31225;BME280;17847;31.524;74.366;2023-04-03T05:09:23;98551.75;;;21.62;77.93
31225;BME280;17847;31.524;74.366;2023-04-03T05:11:53;98556.91;;;21.79;77.24
31225;BME280;17847;31.524;74.366;2023-04-03T05:14:26;98556.06;;;21.73;77.41
31225;BME280;17847;31.524;74.366;2023-04-03T05:17:00;98557.97;;;21.68;76.15
31225;BME280;17847;31.524;74.366;2023-04-03T05:19:33;98560.66;;;21.78;77.00
31225;BME280;17847;31.524;74.366;2023-04-03T05:22:05;98561.19;;;21.70;76.75
31225;BME280;17847;31.524;74.366;2023-04-03T05:24:35;98561.97;;;21.60;76.29
31225;BME280;17847;31.524;74.366;2023-04-03T05:27:07;98563.34;;;21.58;76.53
31225;BME280;17847;31.524;74.366;2023-04-03T05:29:41;98568.47;;;21.64;77.20
31225;BME280;17847;31.524;74.366;2023-04-03T05:32:17;98577.34;;;21.65;76.81
31225;BME280;17847;31.524;74.366;2023-04-03T05:34:51;98579.75;;;21.41;76.05
31225;BME280;17847;31.524;74.366;2023-04-03T05:37:21;98570.31;;;21.43;77.25
31225;BME280;17847;31.524;74.366;2023-04-03T05:39:52;98562.78;;;21.50;76.52
31225;BME280;17847;31.524;74.366;2023-04-03T05:42:22;98563.59;;;21.56;76.25
31225;BME280;17847;31.524;74.366;2023-04-03T05:44:52;98565.50;;;21.61;76.38
31225;BME280;17847;31.524;74.366;2023-04-03T05:47:21;98554.13;;;21.43;76.25
31225;BME280;17847;31.524;74.366;2023-04-03T05:49:51;98561.44;;;21.53;76.24
31225;BME280;17847;31.524;74.366;2023-04-03T05:52:25;98560.09;;;21.45;75.85
31225;BME280;17847;31.524;74.366;2023-04-03T05:54:56;98553.84;;;21.30;75.29
31225;BME280;17847;31.524;74.366;2023-04-03T05:57:27;98551.13;;;21.25;74.97
31225;BME280;17847;31.524;74.366;2023-04-03T05:59:57;98540.66;;;21.28;75.57
31225;BME280;17847;31.524;74.366;2023-04-03T06:02:29;98548.72;;;21.33;75.31
31225;BME280;17847;31.524;74.366;2023-04-03T06:05:00;98553.59;;;21.36;74.75
31225;BME280;17847;31.524;74.366;2023-04-03T06:07:30;98550.91;;;21.36;73.73
31225;BME280;17847;31.524;74.366;2023-04-03T06:09:59;98555.75;;;21.44;73.98
31225;BME280;17847;31.524;74.366;2023-04-03T06:12:30;98556.31;;;21.51;73.41
31225;BME280;17847;31.524;74.366;2023-04-03T06:15:00;98559.03;;;21.62;72.99
31225;BME280;17847;31.524;74.366;2023-04-03T06:17:31;98553.63;;;21.57;72.87
31225;BME280;17847;31.524;74.366;2023-04-03T06:20:06;98557.16;;;21.62;72.29
31225;BME280;17847;31.524;74.366;2023-04-03T06:22:36;98550.41;;;21.65;73.11
31225;BME280;17847;31.524;74.366;2023-04-03T06:25:06;98546.09;;;21.79;72.83
31225;BME280;17847;31.524;74.366;2023-04-03T06:27:36;98545.03;;;21.70;69.96
31225;BME280;17847;31.524;74.366;2023-04-03T06:30:07;98547.19;;;21.63;71.16
31225;BME280;17847;31.524;74.366;2023-04-03T06:32:36;98540.72;;;21.79;70.97
31225;BME280;17847;31.524;74.366;2023-04-03T06:35:06;98532.09;;;21.77;69.89
31225;BME280;17847;31.524;74.366;2023-04-03T06:37:37;98540.97;;;21.82;70.33
31225;BME280;17847;31.524;74.366;2023-04-03T06:40:09;98543.41;;;21.74;68.92
31225;BME280;17847;31.524;74.366;2023-04-03T06:42:42;98540.47;;;21.80;70.56
31225;BME280;17847;31.524;74.366;2023-04-03T06:45:12;98536.66;;;21.91;70.30
31225;BME280;17847;31.524;74.366;2023-04-03T06:47:41;98533.19;;;22.16;71.30
31225;BME280;17847;31.524;74.366;2023-04-03T06:50:12;98538.03;;;22.19;71.14
31225;BME280;17847;31.524;74.366;2023-04-03T06:52:43;98533.19;;;22.11;70.34
31225;BME280;17847;31.524;74.366;2023-04-03T06:55:12;98531.06;;;21.98;67.75
31225;BME280;17847;31.524;74.366;2023-04-03T06:57:42;98527.22;;;21.79;67.16
31225;BME280;17847;31.524;74.366;2023-04-03T07:00:12;98531.81;;;21.68;66.64
31225;BME280;17847;31.524;74.366;2023-04-03T07:02:42;98536.91;;;21.65;68.23
31225;BME280;17847;31.524;74.366;2023-04-03T07:05:12;98533.69;;;21.58;68.40
31225;BME280;17847;31.524;74.366;2023-04-03T07:07:42;98546.59;;;21.56;69.21
31225;BME280;17847;31.524;74.366;2023-04-03T07:10:12;98542.56;;;21.48;68.36
31225;BME280;17847;31.524;74.366;2023-04-03T07:12:41;98536.63;;;21.36;68.63
31225;BME280;17847;31.524;74.366;2023-04-03T07:15:11;98531.22;;;21.31;69.43
31225;BME280;17847;31.524;74.366;2023-04-03T07:17:42;98532.84;;;21.37;68.93
31225;BME280;17847;31.524;74.366;2023-04-03T07:20:11;98526.38;;;21.33;70.00
31225;BME280;17847;31.524;74.366;2023-04-03T07:22:41;98529.88;;;21.38;71.05
31225;BME280;17847;31.524;74.366;2023-04-03T07:25:10;98526.91;;;21.35;70.51
31225;BME280;17847;31.524;74.366;2023-04-03T07:27:40;98530.38;;;21.25;68.86
31225;BME280;17847;31.524;74.366;2023-04-03T07:30:09;98519.03;;;21.13;70.39
31225;BME280;17847;31.524;74.366;2023-04-03T07:32:39;98525.16;;;21.03;71.07
31225;BME280;17847;31.524;74.366;2023-04-03T07:35:09;98522.75;;;21.07;70.81
31225;BME280;17847;31.524;74.366;2023-04-03T07:37:38;98522.81;;;21.17;71.03
31225;BME280;17847;31.524;74.366;2023-04-03T07:40:11;98525.25;;;21.14;71.74
31225;BME280;17847;31.524;74.366;2023-04-03T07:42:40;98524.66;;;21.12;71.50
31225;BME280;17847;31.524;74.366;2023-04-03T07:45:11;98518.78;;;21.15;72.08
31225;BME280;17847;31.524;74.366;2023-04-03T07:47:40;98522.84;;;21.22;72.03
31225;BME280;17847;31.524;74.366;2023-04-03T07:50:10;98521.75;;;21.13;70.95
31225;BME280;17847;31.524;74.366;2023-04-03T07:52:40;98533.03;;;21.10;72.57
31225;BME280;17847;31.524;74.366;2023-04-03T07:55:09;98549.44;;;21.08;72.82
31225;BME280;17847;31.524;74.366;2023-04-03T07:57:38;98559.34;;;20.98;73.14
31225;BME280;17847;31.524;74.366;2023-04-03T08:00:09;98556.91;;;20.91;72.64
31225;BME280;17847;31.524;74.366;2023-04-03T08:03:11;98555.22;;;20.80;72.97
31225;BME280;17847;31.524;74.366;2023-04-03T08:05:43;98542.41;;;20.97;74.21
31225;BME280;17847;31.524;74.366;2023-04-03T08:08:15;98538.34;;;21.00;75.30
31225;BME280;17847;31.524;74.366;2023-04-03T08:10:52;98526.22;;;20.92;75.00
31225;BME280;17847;31.524;74.366;2023-04-03T08:13:22;98514.63;;;20.92;75.77
31225;BME280;17847;31.524;74.366;2023-04-03T08:15:52;98505.47;;;20.98;77.10
31225;BME280;17847;31.524;74.366;2023-04-03T08:18:33;98503.16;;;21.22;76.14
31225;BME280;17847;31.524;74.366;2023-04-03T08:21:10;98488.38;;;21.39;77.88
31225;BME280;17847;31.524;74.366;2023-04-03T08:23:41;98481.84;;;21.10;74.85
31225;BME280;17847;31.524;74.366;2023-04-03T08:26:13;98473.53;;;21.17;74.70
31225;BME280;17847;31.524;74.366;2023-04-03T08:28:43;98461.19;;;21.36;75.89
31225;BME280;17847;31.524;74.366;2023-04-03T08:31:15;98452.56;;;21.49;74.03
31225;BME280;17847;31.524;74.366;2023-04-03T08:33:46;98426.97;;;21.41;72.62
31225;BME280;17847;31.524;74.366;2023-04-03T08:36:27;98418.88;;;21.26;72.60
31225;BME280;17847;31.524;74.366;2023-04-03T08:38:57;98401.63;;;21.42;71.84
31225;BME280;17847;31.524;74.366;2023-04-03T08:41:32;98383.84;;;21.51;71.35
31225;BME280;17847;31.524;74.366;2023-04-03T08:49:53;98341.00;;;21.50;70.23
31225;BME280;17847;31.524;74.366;2023-04-03T08:52:52;98332.03;;;21.90;70.14
31225;BME280;17847;31.524;74.366;2023-04-03T08:55:23;98332.31;;;21.93;69.88
31225;BME280;17847;31.524;74.366;2023-04-03T09:03:41;98332.84;;;21.90;68.14
31225;BME280;17847;31.524;74.366;2023-04-03T09:09:13;98364.91;;;21.97;70.53
31225;BME280;17847;31.524;74.366;2023-04-03T09:17:03;98433.88;;;22.28;69.15
31225;BME280;17847;31.524;74.366;2023-04-03T09:22:50;98443.69;;;21.99;70.34
31225;BME280;17847;31.524;74.366;2023-04-03T09:25:31;98444.97;;;21.91;70.82
31225;BME280;17847;31.524;74.366;2023-04-03T09:28:02;98450.69;;;21.95;70.07
31225;BME280;17847;31.524;74.366;2023-04-03T09:30:33;98450.13;;;22.08;69.36
31225;BME280;17847;31.524;74.366;2023-04-03T09:33:03;98425.28;;;22.21;68.66
31225;BME280;17847;31.524;74.366;2023-04-03T09:35:36;98415.53;;;22.30;68.71
31225;BME280;17847;31.524;74.366;2023-04-03T09:38:18;98415.03;;;22.13;68.75
31225;BME280;17847;31.524;74.366;2023-04-03T09:41:15;98411.97;;;22.40;67.84
31225;BME280;17847;31.524;74.366;2023-04-03T09:43:53;98401.75;;;22.32;67.04
31225;BME280;17847;31.524;74.366;2023-04-03T09:46:32;98392.94;;;22.11;65.71
31225;BME280;17847;31.524;74.366;2023-04-03T09:49:04;98393.69;;;22.22;67.10
31225;BME280;17847;31.524;74.366;2023-04-03T09:51:37;98404.34;;;22.57;67.46
31225;BME280;17847;31.524;74.366;2023-04-03T09:54:38;98395.69;;;22.65;66.77
31225;BME280;17847;31.524;74.366;2023-04-03T09:57:12;98389.28;;;22.46;65.67
31225;BME280;17847;31.524;74.366;2023-04-03T10:00:03;98386.09;;;22.93;67.43
31225;BME280;17847;31.524;74.366;2023-04-03T10:02:39;98386.09;;;22.88;66.60
31225;BME280;17847;31.524;74.366;2023-04-03T10:05:34;98378.88;;;22.83;66.27
31225;BME280;17847;31.524;74.366;2023-04-03T10:10:45;98370.94;;;22.97;65.36
31225;BME280;17847;31.524;74.366;2023-04-03T10:13:20;98366.59;;;23.01;65.95
31225;BME280;17847;31.524;74.366;2023-04-03T10:16:03;98372.63;;;23.27;66.37
31225;BME280;17847;31.524;74.366;2023-04-03T10:21:55;98356.41;;;23.27;63.33
31225;BME280;17847;31.524;74.366;2023-04-03T10:24:47;98353.31;;;23.10;63.36
31225;BME280;17847;31.524;74.366;2023-04-03T10:27:44;98348.16;;;23.08;62.74
31225;BME280;17847;31.524;74.366;2023-04-03T10:33:01;98346.34;;;22.99;62.40
31225;BME280;17847;31.524;74.366;2023-04-03T10:36:00;98341.16;;;23.07;63.21
31225;BME280;17847;31.524;74.366;2023-04-03T10:38:36;98339.06;;;23.28;63.54
31225;BME280;17847;31.524;74.366;2023-04-03T10:41:52;98332.59;;;23.29;62.91
31225;BME280;17847;31.524;74.366;2023-04-03T10:53:31;98323.66;;;23.00;62.32
31225;BME280;17847;31.524;74.366;2023-04-03T10:58:45;98333.44;;;22.91;63.79
31225;BME280;17847;31.524;74.366;2023-04-03T11:01:30;98327.47;;;22.94;63.54
31225;BME280;17847;31.524;74.366;2023-04-03T11:04:04;98330.81;;;22.80;61.41
31225;BME280;17847;31.524;74.366;2023-04-03T11:09:27;98323.53;;;22.81;61.50
31225;BME280;17847;31.524;74.366;2023-04-03T11:12:04;98317.25;;;22.91;62.44
31225;BME280;17847;31.524;74.366;2023-04-03T11:14:36;98321.34;;;22.83;61.86
31225;BME280;17847;31.524;74.366;2023-04-03T11:20:20;98324.28;;;22.87;63.61
31225;BME280;17847;31.524;74.366;2023-04-03T11:23:21;98315.47;;;22.71;62.05
31225;BME280;17847;31.524;74.366;2023-04-03T11:25:55;98310.41;;;22.59;62.06
31225;BME280;17847;31.524;74.366;2023-04-03T11:28:29;98310.19;;;22.51;60.86
31225;BME280;17847;31.524;74.366;2023-04-03T11:31:02;98302.66;;;22.48;60.29
31225;BME280;17847;31.524;74.366;2023-04-03T11:36:50;98295.59;;;22.57;63.09
31225;BME280;17847;31.524;74.366;2023-04-03T11:39:33;98293.94;;;22.61;61.70
31225;BME280;17847;31.524;74.366;2023-04-03T11:42:30;98290.22;;;22.52;63.05
31225;BME280;17847;31.524;74.366;2023-04-03T11:50:51;98290.84;;;22.33;63.19
31225;BME280;17847;31.524;74.366;2023-04-03T11:53:33;98293.81;;;22.32;63.97
31225;BME280;17847;31.524;74.366;2023-04-03T11:59:38;98302.91;;;22.51;64.26
31225;BME280;17847;31.524;74.366;2023-04-03T12:01:54;98297.78;;;22.45;65.29
31225;BME280;17847;31.524;74.366;2023-04-03T12:04:26;98311.59;;;22.43;64.95
31225;BME280;17847;31.524;74.366;2023-04-03T12:07:13;98308.97;;;22.28;65.61
31225;BME280;17847;31.524;74.366;2023-04-03T12:12:35;98310.03;;;22.27;64.90
31225;BME280;17847;31.524;74.366;2023-04-03T12:15:25;98313.63;;;22.12;63.93
31225;BME280;17847;31.524;74.366;2023-04-03T12:17:56;98313.91;;;22.06;63.30
31225;BME280;17847;31.524;74.366;2023-04-03T12:20:54;98321.19;;;22.10;64.63
31225;BME280;17847;31.524;74.366;2023-04-03T12:23:30;98322.53;;;22.13;64.39
31225;BME280;17847;31.524;74.366;2023-04-03T12:26:27;98328.47;;;22.10;64.03
31225;BME280;17847;31.524;74.366;2023-04-03T12:51:42;98353.91;;;21.68;68.69
31225;BME280;17847;31.524;74.366;2023-04-03T12:54:19;98351.75;;;21.65;68.08
31225;BME280;17847;31.524;74.366;2023-04-03T12:56:51;98347.97;;;21.66;68.14
31225;BME280;17847;31.524;74.366;2023-04-03T12:59:23;98353.94;;;21.58;67.36
31225;BME280;17847;31.524;74.366;2023-04-03T13:01:59;98353.38;;;21.56;67.53
31225;BME280;17847;31.524;74.366;2023-04-03T13:04:31;98370.34;;;21.51;68.20
31225;BME280;17847;31.524;74.366;2023-04-03T13:07:01;98381.16;;;21.41;68.65
31225;BME280;17847;31.524;74.366;2023-04-03T13:09:32;98393.81;;;21.41;68.63
31225;BME280;17847;31.524;74.366;2023-04-03T13:12:13;98394.63;;;21.46;69.21
31225;BME280;17847;31.524;74.366;2023-04-03T13:14:55;98401.09;;;21.40;70.12
31225;BME280;17847;31.524;74.366;2023-04-03T13:17:27;98404.84;;;21.29;70.46
31225;BME280;17847;31.524;74.366;2023-04-03T13:20:13;98405.13;;;21.23;70.42
31225;BME280;17847;31.524;74.366;2023-04-03T13:25:20;98404.81;;;21.09;71.71
31225;BME280;17847;31.524;74.366;2023-04-03T13:27:50;98409.13;;;21.05;72.44
31225;BME280;17847;31.524;74.366;2023-04-03T13:30:39;98414.53;;;21.10;73.19
31225;BME280;17847;31.524;74.366;2023-04-03T13:33:30;98413.16;;;20.97;73.58
31225;BME280;17847;31.524;74.366;2023-04-03T13:36:08;98423.09;;;20.87;73.47
31225;BME280;17847;31.524;74.366;2023-04-03T13:38:40;98420.34;;;20.77;74.04
31225;BME280;17847;31.524;74.366;2023-04-03T13:41:34;98426.00;;;20.80;74.85
31225;BME280;17847;31.524;74.366;2023-04-03T13:50:20;98425.22;;;20.75;75.13
31225;BME280;17847;31.524;74.366;2023-04-03T13:52:59;98431.41;;;20.75;74.55
31225;BME280;17847;31.524;74.366;2023-04-03T13:55:35;98434.59;;;20.67;74.73
31225;BME280;17847;31.524;74.366;2023-04-03T14:00:51;98421.91;;;20.52;75.28
31225;BME280;17847;31.524;74.366;2023-04-03T14:03:36;98425.13;;;20.54;75.65
31225;BME280;17847;31.524;74.366;2023-04-03T14:06:10;98429.22;;;20.62;75.86
31225;BME280;17847;31.524;74.366;2023-04-03T14:08:39;98438.63;;;20.65;75.78
31225;BME280;17847;31.524;74.366;2023-04-03T14:11:20;98448.03;;;20.62;75.25
31225;BME280;17847;31.524;74.366;2023-04-03T14:13:51;98455.31;;;20.61;75.56
31225;BME280;17847;31.524;74.366;2023-04-03T14:16:24;98452.88;;;20.60;75.53
31225;BME280;17847;31.524;74.366;2023-04-03T14:18:56;98467.31;;;20.39;76.14
31225;BME280;17847;31.524;74.366;2023-04-03T14:21:27;98469.50;;;20.47;76.48
31225;BME280;17847;31.524;74.366;2023-04-03T14:23:56;98458.41;;;20.33;76.41
31225;BME280;17847;31.524;74.366;2023-04-03T14:26:27;98468.94;;;20.40;76.39
31225;BME280;17847;31.524;74.366;2023-04-03T14:28:58;98476.72;;;20.41;76.97
31225;BME280;17847;31.524;74.366;2023-04-03T14:31:31;98469.44;;;20.37;76.28
31225;BME280;17847;31.524;74.366;2023-04-03T14:34:01;98466.19;;;20.30;76.46
31225;BME280;17847;31.524;74.366;2023-04-03T14:36:31;98462.34;;;20.21;76.60
31225;BME280;17847;31.524;74.366;2023-04-03T14:39:04;98472.78;;;20.12;76.88
31225;BME280;17847;31.524;74.366;2023-04-03T14:41:34;98471.13;;;20.11;76.65
31225;BME280;17847;31.524;74.366;2023-04-03T14:44:04;98467.69;;;20.15;76.82
31225;BME280;17847;31.524;74.366;2023-04-03T14:46:38;98473.88;;;20.16;76.66
31225;BME280;17847;31.524;74.366;2023-04-03T14:49:25;98483.59;;;20.22;76.23
31225;BME280;17847;31.524;74.366;2023-04-03T14:51:57;98485.69;;;20.15;76.93
31225;BME280;17847;31.524;74.366;2023-04-03T14:54:27;98494.28;;;20.12;76.95
31225;BME280;17847;31.524;74.366;2023-04-03T14:56:59;98494.25;;;20.07;77.18
31225;BME280;17847;31.524;74.366;2023-04-03T14:59:31;98498.28;;;20.09;77.28
31225;BME280;17847;31.524;74.366;2023-04-03T15:02:01;98503.91;;;20.03;77.68
31225;BME280;17847;31.524;74.366;2023-04-03T15:04:31;98513.50;;;19.94;78.37
31225;BME280;17847;31.524;74.366;2023-04-03T15:07:01;98509.66;;;19.85;78.08
31225;BME280;17847;31.524;74.366;2023-04-03T15:09:31;98520.72;;;19.88;79.01
31225;BME280;17847;31.524;74.366;2023-04-03T15:12:00;98529.06;;;19.92;78.14